Time;durP1;ratioP1;P1;durP2;ratioP2;P2;SDS_P1;SDS_P2;PMS_P1;PMS_P2;Temp;Humidity;BMP_temperature;BMP_pressure;BME280_temperature;BME280_humidity;BME280_pressure;Samples;Min_cycle;Max_cycle;Signal;HPM_P1;HPM_P2
2022/08/10 00:00:26;;;;;;;1.40;0.93;;;19.70;48.80;;;;;;5093134;28;20063;-78
2022/08/10 00:02:56;;;;;;;2.47;1.52;;;19.70;48.70;;;;;;5095659;28;20020;-79
2022/08/10 00:05:22;;;;;;;2.50;1.30;;;19.70;48.70;;;;;;5094179;28;20028;-78
2022/08/10 00:07:48;;;;;;;2.80;1.40;;;19.70;48.50;;;;;;5094242;28;20031;-79
2022/08/10 00:10:16;;;;;;;2.72;1.05;;;19.80;48.50;;;;;;5093993;28;20032;-78
2022/08/10 00:12:42;;;;;;;3.65;1.40;;;19.80;48.50;;;;;;5094239;28;20088;-78
2022/08/10 00:15:10;;;;;;;5.32;1.40;;;19.80;48.50;;;;;;5094043;28;20107;-80
2022/08/10 00:17:36;;;;;;;4.85;1.50;;;19.80;48.10;;;;;;5094155;28;20355;-80
2022/08/10 00:20:03;;;;;;;4.13;1.20;;;19.90;47.90;;;;;;5094028;28;20099;-81
2022/08/10 00:22:29;;;;;;;2.88;1.35;;;20.00;47.90;;;;;;5093849;28;20024;-80
2022/08/10 00:24:56;;;;;;;2.08;1.17;;;20.00;47.60;;;;;;5093934;28;20016;-80
2022/08/10 00:27:23;;;;;;;3.50;1.38;;;20.10;47.60;;;;;;5093907;28;20233;-81
2022/08/10 00:29:49;;;;;;;5.28;1.23;;;20.10;47.40;;;;;;5094334;28;20090;-81
2022/08/10 00:32:14;;;;;;;3.80;1.50;;;20.10;47.20;;;;;;5092261;28;20036;-81
2022/08/10 00:34:40;;;;;;;3.30;1.52;;;20.10;47.10;;;;;;5093718;28;20051;-81
2022/08/10 00:37:05;;;;;;;3.17;1.38;;;20.20;47.00;;;;;;5093889;28;20389;-81
2022/08/10 00:39:31;;;;;;;3.13;1.70;;;20.10;47.00;;;;;;5093764;28;20067;-81
2022/08/10 00:41:56;;;;;;;5.30;1.70;;;20.10;47.20;;;;;;5093695;28;20496;-81
2022/08/10 00:44:22;;;;;;;4.63;1.15;;;20.20;47.20;;;;;;5093956;28;20020;-80
2022/08/10 00:46:47;;;;;;;4.20;1.40;;;20.20;46.90;;;;;;5092840;28;20036;-80
2022/08/10 00:49:13;;;;;;;5.88;1.58;;;20.20;47.00;;;;;;5093770;28;20058;-81
2022/08/10 00:51:40;;;;;;;1.60;1.23;;;20.20;46.80;;;;;;5093777;28;20119;-80
2022/08/10 00:54:06;;;;;;;2.45;1.38;;;20.30;47.00;;;;;;5094261;28;20414;-80
2022/08/10 00:56:31;;;;;;;4.38;1.40;;;20.30;46.90;;;;;;5094587;28;20031;-74
2022/08/10 00:58:57;;;;;;;2.40;1.23;;;20.30;47.00;;;;;;5093789;28;20464;-74
2022/08/10 01:01:23;;;;;;;1.98;1.17;;;20.20;46.60;;;;;;5093210;28;20030;-75
2022/08/10 01:03:48;;;;;;;2.25;1.17;;;20.20;46.90;;;;;;5093268;28;20024;-75
2022/08/10 01:06:28;;;;;;;1.92;1.20;;;20.20;46.80;;;;;;5093336;28;20020;-73
2022/08/10 01:09:10;;;;;;;3.17;1.35;;;20.20;47.10;;;;;;5093286;28;20020;-74
2022/08/10 01:12:01;;;;;;;5.75;1.75;;;20.10;47.20;;;;;;5092703;28;20106;-75
2022/08/10 01:14:30;;;;;;;3.00;1.60;;;20.10;47.30;;;;;;5093131;28;20531;-74
2022/08/10 01:16:59;;;;;;;2.50;1.20;;;20.10;47.50;;;;;;5092980;28;20051;-74
2022/08/10 01:20:06;;;;;;;2.63;1.20;;;20.10;47.20;;;;;;5092776;28;20027;-74
2022/08/10 01:22:58;;;;;;;1.35;1.25;;;20.10;46.90;;;;;;5093115;28;20024;-74
2022/08/10 01:25:46;;;;;;;4.38;1.42;;;20.00;47.10;;;;;;5093129;28;20110;-76
2022/08/10 01:28:29;;;;;;;1.98;1.40;;;19.90;47.30;;;;;;5092859;28;20016;-74
2022/08/10 01:30:59;;;;;;;1.83;1.25;;;19.80;47.60;;;;;;5093060;28;20466;-83
2022/08/10 01:33:31;;;;;;;2.03;1.40;;;19.70;47.90;;;;;;5093151;28;20058;-82
2022/08/10 01:36:02;;;;;;;2.95;1.77;;;19.70;48.10;;;;;;5093149;28;20024;-83
2022/08/10 01:38:35;;;;;;;4.03;1.70;;;19.70;48.20;;;;;;5092776;28;20032;-82
2022/08/10 01:41:05;;;;;;;3.08;1.30;;;19.60;48.20;;;;;;5092987;28;20035;-82
2022/08/10 01:43:33;;;;;;;3.97;1.33;;;19.50;48.50;;;;;;5093084;28;20024;-80
2022/08/10 01:46:01;;;;;;;2.65;1.50;;;19.60;48.40;;;;;;5092800;28;20030;-81
2022/08/10 01:48:33;;;;;;;4.13;1.20;;;19.70;48.30;;;;;;5092647;28;20105;-80
2022/08/10 01:51:22;;;;;;;3.88;1.73;;;19.70;48.30;;;;;;5092738;28;20036;-80
2022/08/10 01:53:52;;;;;;;3.33;1.33;;;19.60;48.10;;;;;;5092829;28;20409;-79
2022/08/10 01:56:21;;;;;;;3.40;1.67;;;19.60;48.20;;;;;;5092604;28;20136;-79
2022/08/10 01:58:51;;;;;;;3.50;1.20;;;19.60;48.20;;;;;;5092634;28;20021;-79
2022/08/10 02:01:21;;;;;;;4.97;1.10;;;19.60;48.30;;;;;;5092925;28;20016;-78
2022/08/10 02:03:49;;;;;;;2.08;1.20;;;19.50;48.50;;;;;;5096659;28;20008;-78
2022/08/10 02:06:16;;;;;;;3.63;1.58;;;19.50;48.70;;;;;;5096589;28;20021;-78
2022/08/10 02:08:44;;;;;;;3.10;1.23;;;19.60;49.40;;;;;;5096385;28;20519;-79
2022/08/10 02:11:11;;;;;;;3.00;1.35;;;19.70;48.40;;;;;;5096465;28;20551;-79
2022/08/10 02:13:38;;;;;;;2.30;1.55;;;19.70;48.30;;;;;;5096124;28;20051;-79
2022/08/10 02:16:05;;;;;;;1.83;1.52;;;19.70;48.30;;;;;;5096451;28;20054;-78
2022/08/10 02:18:32;;;;;;;2.63;1.38;;;19.80;48.00;;;;;;5094963;28;20058;-79
2022/08/10 02:21:01;;;;;;;2.60;1.20;;;19.70;48.20;;;;;;5096308;28;20069;-80
2022/08/10 02:23:30;;;;;;;2.40;1.38;;;19.60;48.50;;;;;;5096049;28;20085;-79
2022/08/10 02:25:58;;;;;;;3.75;1.40;;;19.60;48.60;;;;;;5096239;28;20069;-80
2022/08/10 02:28:29;;;;;;;2.72;1.33;;;19.50;49.00;;;;;;5095992;28;20024;-79
2022/08/10 02:30:58;;;;;;;2.90;1.63;;;19.40;49.20;;;;;;5096069;28;20024;-79
2022/08/10 02:33:26;;;;;;;1.40;1.20;;;19.50;49.50;;;;;;5096140;28;20359;-80
2022/08/10 02:35:53;;;;;;;3.78;1.45;;;19.60;49.10;;;;;;5095999;28;20059;-79
2022/08/10 02:38:24;;;;;;;2.22;1.52;;;19.60;48.80;;;;;;5095850;28;20481;-79
2022/08/10 02:40:55;;;;;;;2.80;1.33;;;19.70;48.60;;;;;;5095767;28;20031;-79
2022/08/10 02:43:27;;;;;;;5.15;1.25;;;19.70;48.60;;;;;;5095822;28;20484;-77
2022/08/10 02:45:59;;;;;;;3.08;1.83;;;19.60;48.60;;;;;;5095808;28;20493;-78
2022/08/10 02:48:39;;;;;;;5.82;1.70;;;19.50;49.00;;;;;;5095711;28;20040;-78
2022/08/10 02:51:10;;;;;;;2.85;1.60;;;19.50;49.20;;;;;;5095628;28;20040;-79
2022/08/10 02:53:52;;;;;;;2.28;1.77;;;19.40;49.40;;;;;;5095685;28;20460;-79
2022/08/10 02:56:45;;;;;;;3.17;1.50;;;19.20;49.90;;;;;;5095553;28;20024;-81
2022/08/10 02:59:18;;;;;;;3.92;1.80;;;19.10;50.60;;;;;;5095359;28;20045;-81
2022/08/10 03:01:47;;;;;;;6.15;1.75;;;18.90;51.10;;;;;;5095339;28;20020;-81
2022/08/10 03:04:21;;;;;;;3.55;1.67;;;18.80;51.60;;;;;;5095391;28;20432;-82
2022/08/10 03:06:56;;;;;;;1.52;1.30;;;18.70;51.70;;;;;;5095205;28;20039;-82
2022/08/10 03:09:23;;;;;;;5.03;1.73;;;18.80;51.80;;;;;;5095312;28;20091;-82
2022/08/10 03:11:51;;;;;;;3.10;2.00;;;18.70;52.00;;;;;;5095168;28;20028;-82
2022/08/10 03:14:18;;;;;;;2.17;1.40;;;18.70;52.20;;;;;;5094090;28;20381;-82
2022/08/10 03:16:46;;;;;;;3.83;1.63;;;18.70;52.30;;;;;;5095124;28;20016;-82
2022/08/10 03:19:12;;;;;;;5.15;1.58;;;18.70;52.30;;;;;;5094122;28;20028;-82
2022/08/10 03:21:39;;;;;;;2.33;1.50;;;18.60;52.90;;;;;;5095066;28;20099;-82
2022/08/10 03:24:06;;;;;;;2.58;1.40;;;18.60;53.10;;;;;;5094956;28;20103;-80
2022/08/10 03:26:32;;;;;;;2.70;1.67;;;18.60;53.20;;;;;;5094799;28;20035;-81
2022/08/10 03:28:59;;;;;;;3.03;1.80;;;18.50;53.40;;;;;;5094777;28;20016;-79
2022/08/10 03:31:30;;;;;;;4.63;1.92;;;18.30;54.00;;;;;;5094782;28;20581;-78
2022/08/10 03:33:57;;;;;;;4.03;1.90;;;18.20;54.30;;;;;;5094520;28;20066;-78
2022/08/10 03:36:22;;;;;;;3.25;1.92;;;18.20;54.70;;;;;;5093414;28;20377;-77
2022/08/10 03:38:50;;;;;;;7.57;2.35;;;18.10;55.00;;;;;;5094634;28;20077;-78
2022/08/10 03:41:19;;;;;;;4.55;2.25;;;18.10;55.30;;;;;;5094695;28;20035;-78
2022/08/10 03:43:47;;;;;;;4.30;2.33;;;18.00;55.50;;;;;;5094377;28;20073;-78
2022/08/10 03:46:16;;;;;;;3.78;1.83;;;18.00;55.80;;;;;;5093144;28;20416;-78
2022/08/10 03:48:43;;;;;;;4.93;1.70;;;17.90;55.80;;;;;;5092850;28;20043;-78
2022/08/10 03:51:10;;;;;;;3.63;2.05;;;17.90;56.90;;;;;;5094051;28;20115;-78
2022/08/10 03:53:36;;;;;;;2.33;1.42;;;17.80;56.40;;;;;;5094267;28;20024;-79
2022/08/10 03:56:02;;;;;;;5.95;2.20;;;17.70;56.80;;;;;;5094320;28;20099;-79
2022/08/10 03:58:27;;;;;;;1.88;1.77;;;17.70;56.80;;;;;;5094373;28;20025;-79
2022/08/10 04:00:55;;;;;;;2.45;1.65;;;17.70;56.70;;;;;;5092746;28;20089;-79
2022/08/10 04:03:21;;;;;;;4.28;1.67;;;17.80;56.60;;;;;;5094201;28;20020;-79
2022/08/10 04:05:47;;;;;;;5.45;1.90;;;17.80;56.70;;;;;;5094228;28;20474;-79
2022/08/10 04:08:13;;;;;;;3.95;1.92;;;17.80;56.60;;;;;;5094010;28;20032;-79
2022/08/10 04:10:39;;;;;;;5.55;2.03;;;17.80;56.60;;;;;;5093722;28;20070;-79
2022/08/10 04:13:04;;;;;;;3.70;1.90;;;17.80;56.60;;;;;;5094023;28;20056;-79
2022/08/10 04:15:30;;;;;;;3.45;1.73;;;17.90;56.70;;;;;;5093904;28;20482;-78
2022/08/10 04:17:56;;;;;;;3.40;1.92;;;17.90;56.50;;;;;;5092633;28;20028;-78
2022/08/10 04:20:32;;;;;;;4.43;2.10;;;17.80;56.60;;;;;;5093968;28;20056;-78
2022/08/10 04:23:02;;;;;;;2.30;1.90;;;17.80;56.70;;;;;;5093751;28;20482;-77
2022/08/10 04:25:28;;;;;;;2.78;1.52;;;17.80;56.70;;;;;;5092183;28;20035;-78
2022/08/10 04:27:54;;;;;;;5.70;1.67;;;17.90;56.70;;;;;;5093757;28;20081;-77
2022/08/10 04:30:20;;;;;;;2.05;1.80;;;17.80;56.60;;;;;;5093601;28;20024;-78
2022/08/10 04:32:49;;;;;;;2.40;1.30;;;17.80;56.50;;;;;;5094094;28;20070;-78
2022/08/10 04:35:18;;;;;;;2.55;1.67;;;17.90;56.60;;;;;;5093425;28;20016;-78
2022/08/10 04:37:46;;;;;;;3.15;1.63;;;17.90;56.50;;;;;;5093576;28;20483;-76
2022/08/10 04:40:12;;;;;;;5.07;1.80;;;18.00;56.30;;;;;;5093451;28;20096;-78
2022/08/10 04:42:38;;;;;;;2.88;1.70;;;18.00;56.20;;;;;;5093277;28;20024;-78
2022/08/10 04:45:10;;;;;;;2.75;1.83;;;18.10;56.10;;;;;;5093530;28;20428;-79
2022/08/10 04:47:36;;;;;;;2.83;1.75;;;18.00;55.90;;;;;;5093517;28;20046;-79
2022/08/10 04:50:02;;;;;;;2.50;1.60;;;18.20;55.70;;;;;;5093585;28;20485;-79
2022/08/10 04:52:28;;;;;;;4.07;1.45;;;18.10;55.60;;;;;;5093475;28;20040;-79
2022/08/10 04:54:53;;;;;;;3.78;1.80;;;18.20;55.60;;;;;;5093429;28;20493;-80
2022/08/10 04:57:19;;;;;;;2.17;1.40;;;18.20;55.30;;;;;;5092205;28;20050;-80
2022/08/10 04:59:44;;;;;;;3.45;1.63;;;18.30;55.20;;;;;;5093593;28;20020;-81
2022/08/10 05:02:10;;;;;;;1.30;1.20;;;18.40;54.90;;;;;;5094228;28;20060;-81
2022/08/10 05:04:35;;;;;;;2.35;1.45;;;18.50;54.70;;;;;;5094046;28;20381;-81
2022/08/10 05:07:01;;;;;;;2.35;1.60;;;18.60;54.40;;;;;;5093612;28;20027;-80
2022/08/10 05:09:27;;;;;;;2.08;1.60;;;18.70;53.80;;;;;;5093344;28;20491;-80
2022/08/10 05:11:52;;;;;;;4.90;1.75;;;18.70;53.50;;;;;;5092870;28;20040;-79
2022/08/10 05:14:18;;;;;;;2.50;1.63;;;18.80;53.20;;;;;;5093302;28;20020;-80
2022/08/10 05:16:43;;;;;;;1.73;1.52;;;18.80;53.10;;;;;;5091813;28;20477;-80
2022/08/10 05:19:09;;;;;;;2.72;1.50;;;18.90;52.90;;;;;;5092981;28;20016;-79
2022/08/10 05:21:34;;;;;;;4.93;2.00;;;18.90;52.50;;;;;;5092964;28;20028;-79
2022/08/10 05:24:03;;;;;;;4.38;2.10;;;19.10;52.60;;;;;;5093024;28;20028;-80
2022/08/10 05:26:30;;;;;;;4.13;1.60;;;19.20;52.20;;;;;;5093233;28;20107;-79
2022/08/10 05:28:56;;;;;;;2.95;1.60;;;19.30;51.50;;;;;;5093068;28;20020;-80
2022/08/10 05:31:21;;;;;;;3.53;1.70;;;19.50;51.00;;;;;;5092919;28;20046;-79
2022/08/10 05:33:47;;;;;;;3.05;1.40;;;19.50;50.70;;;;;;5092859;28;20024;-79
2022/08/10 05:36:13;;;;;;;3.60;1.50;;;19.50;50.50;;;;;;5093259;28;20035;-80
2022/08/10 05:38:39;;;;;;;3.67;1.88;;;19.60;50.20;;;;;;5097756;28;20024;-80
2022/08/10 05:41:05;;;;;;;4.90;1.90;;;19.70;50.10;;;;;;5097275;28;20461;-80
2022/08/10 05:43:31;;;;;;;2.88;1.40;;;19.70;50.10;;;;;;5097376;28;20024;-79
2022/08/10 05:45:56;;;;;;;3.85;1.80;;;19.70;49.80;;;;;;5097109;28;20020;-80
2022/08/10 05:48:22;;;;;;;8.02;3.08;;;19.80;49.30;;;;;;5098445;28;20063;-81
2022/08/10 05:50:48;;;;;;;1.77;1.63;;;19.90;49.30;;;;;;5097514;28;20511;-79
2022/08/10 05:53:13;;;;;;;3.13;1.50;;;19.90;49.00;;;;;;5096704;28;20039;-80
2022/08/10 05:55:39;;;;;;;4.05;1.60;;;20.10;48.60;;;;;;5095728;28;20500;-79
2022/08/10 05:58:04;;;;;;;8.18;2.17;;;20.20;48.20;;;;;;5096957;28;20055;-79
2022/08/10 06:00:32;;;;;;;5.13;1.90;;;20.30;47.40;;;;;;5096948;28;20035;-80
2022/08/10 06:03:02;;;;;;;4.40;1.70;;;20.40;47.10;;;;;;5097279;28;20033;-80
2022/08/10 06:05:33;;;;;;;2.28;1.40;;;20.50;46.40;;;;;;5096509;28;20048;-80
2022/08/10 06:08:08;;;;;;;3.28;1.60;;;20.60;46.60;;;;;;5096996;28;20082;-79
2022/08/10 06:10:36;;;;;;;2.53;1.23;;;20.70;46.20;;;;;;5109557;28;20020;-79
2022/08/10 06:15:51;;;;;;;4.53;1.50;;;21.00;45.60;;;;;;5113883;28;20031;-80
2022/08/10 06:18:18;;;;;;;2.38;1.48;;;21.00;44.50;;;;;;5113149;28;20028;-80
2022/08/10 06:20:45;;;;;;;6.25;1.40;;;21.10;44.40;;;;;;5117871;28;20020;-81
2022/08/10 06:23:11;;;;;;;4.88;1.80;;;21.30;44.10;;;;;;5121020;28;20030;-80
2022/08/10 06:25:37;;;;;;;3.83;1.30;;;21.40;43.80;;;;;;5121229;28;20050;-79
2022/08/10 06:28:05;;;;;;;2.25;1.50;;;21.40;43.20;;;;;;5120722;28;20020;-80
2022/08/10 06:30:33;;;;;;;3.65;1.50;;;21.50;43.20;;;;;;5118172;28;20032;-79
2022/08/10 06:32:59;;;;;;;2.55;1.88;;;21.50;42.30;;;;;;5114380;28;20031;-79
2022/08/10 06:35:27;;;;;;;2.40;1.60;;;21.60;42.50;;;;;;5113491;28;20024;-78
2022/08/10 06:37:56;;;;;;;3.65;1.50;;;21.70;42.40;;;;;;5109725;28;20082;-79
2022/08/10 06:40:26;;;;;;;1.55;1.17;;;21.90;42.40;;;;;;5103117;28;20095;-79
2022/08/10 06:42:53;;;;;;;2.50;1.20;;;22.00;42.30;;;;;;5097587;28;20070;-79
2022/08/10 06:45:26;;;;;;;2.65;1.48;;;22.10;41.90;;;;;;5097872;28;20024;-79
2022/08/10 06:48:17;;;;;;;3.08;1.80;;;22.20;41.30;;;;;;5097044;28;20128;-78
2022/08/10 06:50:49;;;;;;;3.95;1.30;;;22.10;41.50;;;;;;5097462;28;20062;-79
2022/08/10 06:53:17;;;;;;;5.50;1.58;;;22.20;41.50;;;;;;5097728;28;20058;-79
2022/08/10 06:55:48;;;;;;;3.45;1.20;;;22.30;40.80;;;;;;5097990;28;20016;-79
2022/08/10 06:58:14;;;;;;;3.78;1.27;;;22.40;40.70;;;;;;5097033;28;20056;-79
2022/08/10 07:00:42;;;;;;;5.57;1.40;;;22.50;40.90;;;;;;5095857;28;20027;-79
2022/08/10 07:03:10;;;;;;;4.60;1.58;;;22.60;40.30;;;;;;5095659;28;20031;-79
2022/08/10 07:05:46;;;;;;;5.43;1.50;;;22.70;39.80;;;;;;5095404;28;20035;-78
2022/08/10 07:08:13;;;;;;;3.97;1.35;;;22.80;39.60;;;;;;5095397;28;20074;-78
2022/08/10 07:10:40;;;;;;;2.42;1.33;;;22.90;39.40;;;;;;5095299;28;20059;-77
2022/08/10 07:13:06;;;;;;;3.60;1.20;;;23.00;39.20;;;;;;5095128;28;20020;-81
2022/08/10 07:15:33;;;;;;;2.95;1.02;;;23.10;39.00;;;;;;5093892;28;20081;-79
2022/08/10 07:18:00;;;;;;;3.20;1.38;;;23.20;38.40;;;;;;5093880;28;20024;-84
2022/08/10 07:20:26;;;;;;;5.00;1.60;;;23.20;38.30;;;;;;5095074;28;20017;-77
2022/08/10 07:22:53;;;;;;;3.08;1.33;;;23.20;38.40;;;;;;5094860;28;20042;-78
2022/08/10 07:25:27;;;;;;;1.38;1.27;;;23.30;38.20;;;;;;5095336;28;20085;-86
2022/08/10 07:27:55;;;;;;;3.10;1.60;;;23.40;38.00;;;;;;5094725;28;20024;-81
2022/08/10 07:30:21;;;;;;;3.83;1.30;;;23.50;37.70;;;;;;5094692;28;20117;-80
2022/08/10 07:32:51;;;;;;;9.30;1.55;;;23.50;37.40;;;;;;5094622;28;20037;-80
2022/08/10 07:35:20;;;;;;;2.92;1.15;;;23.50;37.60;;;;;;5094769;28;20059;-80
2022/08/10 07:37:48;;;;;;;3.42;1.33;;;23.50;37.40;;;;;;5094780;28;20016;-87
2022/08/10 07:40:16;;;;;;;3.05;1.02;;;23.50;37.40;;;;;;5095452;28;20458;-79
2022/08/10 07:42:43;;;;;;;5.50;1.35;;;23.60;37.30;;;;;;5094596;28;20020;-80
2022/08/10 07:45:09;;;;;;;3.25;1.48;;;23.80;37.00;;;;;;5094636;28;20093;-81
2022/08/10 07:48:07;;;;;;;7.18;1.42;;;23.80;36.60;;;;;;5094479;28;20044;-82
2022/08/10 07:50:34;;;;;;;3.65;1.42;;;23.80;36.50;;;;;;5089746;28;20036;-85
2022/08/10 07:53:02;;;;;;;3.88;1.33;;;23.90;36.20;;;;;;5094390;28;20474;-80
2022/08/10 07:55:28;;;;;;;3.38;1.13;;;23.90;36.00;;;;;;5094245;28;20493;-80
2022/08/10 07:57:56;;;;;;;2.10;1.10;;;23.90;36.10;;;;;;5094353;28;20032;-81
2022/08/10 08:00:24;;;;;;;3.08;1.13;;;23.90;36.10;;;;;;5093668;28;20020;-81
2022/08/10 08:02:53;;;;;;;1.45;1.10;;;23.90;35.90;;;;;;5094185;28;20027;-80
2022/08/10 08:05:22;;;;;;;2.40;1.10;;;24.00;36.10;;;;;;5092479;28;20024;-81
2022/08/10 08:07:52;;;;;;;3.58;1.30;;;24.00;35.70;;;;;;5092715;28;20413;-81
2022/08/10 08:10:21;;;;;;;2.97;1.33;;;24.10;35.40;;;;;;5094129;28;20115;-81
2022/08/10 08:12:47;;;;;;;4.10;1.55;;;24.10;35.80;;;;;;5094051;28;20036;-81
2022/08/10 08:15:17;;;;;;;6.65;1.30;;;24.20;35.40;;;;;;5092726;28;20077;-80
2022/08/10 08:17:44;;;;;;;2.17;0.90;;;24.20;35.20;;;;;;5093348;28;20023;-80
2022/08/10 08:20:11;;;;;;;3.13;2.28;;;24.20;35.30;;;;;;5092505;28;20412;-79
2022/08/10 08:22:37;;;;;;;4.90;1.00;;;24.10;35.80;;;;;;5093810;28;20486;-81
2022/08/10 08:25:04;;;;;;;5.65;1.25;;;24.20;35.20;;;;;;5093974;28;20028;-81
2022/08/10 08:27:31;;;;;;;5.53;1.20;;;24.30;34.90;;;;;;5093855;28;20024;-81
2022/08/10 08:29:58;;;;;;;3.22;1.58;;;24.30;34.80;;;;;;5093811;28;20028;-82
2022/08/10 08:32:25;;;;;;;3.15;1.17;;;24.40;35.00;;;;;;5094131;28;20028;-82
2022/08/10 08:35:09;;;;;;;3.25;1.05;;;24.50;34.70;;;;;;5093848;28;20535;-81
2022/08/10 08:37:36;;;;;;;6.65;1.50;;;24.50;34.20;;;;;;5093571;28;20024;-81
2022/08/10 08:40:09;;;;;;;3.08;1.40;;;24.60;34.00;;;;;;5093533;28;20049;-82
2022/08/10 08:43:04;;;;;;;5.43;1.38;;;24.60;34.00;;;;;;5092375;28;20020;-81
2022/08/10 08:45:38;;;;;;;3.22;1.25;;;24.70;34.30;;;;;;5093638;28;20020;-80
2022/08/10 08:48:18;;;;;;;3.97;1.02;;;24.80;33.50;;;;;;5093397;28;20050;-81
2022/08/10 08:50:57;;;;;;;5.30;1.25;;;24.80;33.50;;;;;;5092901;28;20028;-81
2022/08/10 08:54:04;;;;;;;2.95;1.30;;;24.80;33.30;;;;;;5092374;28;20483;-80
2022/08/10 08:56:53;;;;;;;2.83;1.13;;;24.90;33.40;;;;;;5093108;28;20082;-82
2022/08/10 08:59:43;;;;;;;2.00;1.30;;;25.00;33.10;;;;;;5088991;28;20092;-82
2022/08/10 09:02:46;;;;;;;4.25;1.13;;;25.00;32.60;;;;;;5091901;28;20485;-81
2022/08/10 09:05:18;;;;;;;3.97;1.10;;;25.10;31.50;;;;;;5093173;28;20103;-83
2022/08/10 09:08:09;;;;;;;3.20;1.05;;;25.20;30.60;;;;;;5092812;28;20020;-81
2022/08/10 09:11:00;;;;;;;5.63;1.13;;;25.30;29.80;;;;;;5092393;28;20478;-82
2022/08/10 09:13:47;;;;;;;1.30;1.20;;;25.30;30.00;;;;;;5092687;28;20401;-81
2022/08/10 09:16:39;;;;;;;2.40;0.93;;;25.30;29.60;;;;;;5091728;28;20085;-84
2022/08/10 09:19:12;;;;;;;2.58;1.10;;;25.40;29.90;;;;;;5092993;28;20057;-83
2022/08/10 09:21:56;;;;;;;5.07;1.00;;;25.40;29.70;;;;;;5093022;28;20138;-82
2022/08/10 09:24:33;;;;;;;3.17;1.60;;;25.40;27.80;;;;;;5092871;28;20027;-81
2022/08/10 09:27:08;;;;;;;3.33;1.33;;;25.50;27.90;;;;;;5092727;28;20024;-82
2022/08/10 09:29:41;;;;;;;8.20;1.10;;;25.50;27.80;;;;;;5093016;28;20031;-82
2022/08/10 09:32:09;;;;;;;2.92;1.02;;;25.50;27.10;;;;;;5092861;28;20032;-81
2022/08/10 09:34:48;;;;;;;4.28;1.02;;;25.40;27.70;;;;;;5092850;28;20016;-81
2022/08/10 09:37:22;;;;;;;2.97;1.10;;;25.50;26.70;;;;;;5092754;28;20430;-81
2022/08/10 09:39:57;;;;;;;3.17;0.98;;;25.50;27.50;;;;;;5091461;28;20020;-81
2022/08/10 09:42:37;;;;;;;1.85;0.93;;;25.60;27.60;;;;;;5092921;28;20028;-82
2022/08/10 09:45:15;;;;;;;7.47;1.00;;;25.70;27.60;;;;;;5092796;28;20136;-81
2022/08/10 09:47:55;;;;;;;5.65;3.10;;;25.90;26.90;;;;;;5092158;28;20052;-81
2022/08/10 09:50:49;;;;;;;3.65;1.67;;;26.10;26.40;;;;;;5092602;28;20477;-81
2022/08/10 09:53:21;;;;;;;3.03;1.30;;;26.20;26.10;;;;;;5092676;28;20036;-82
2022/08/10 09:56:08;;;;;;;4.88;0.98;;;26.30;25.40;;;;;;5092415;28;20077;-81
2022/08/10 09:58:56;;;;;;;2.65;1.23;;;26.40;25.50;;;;;;5092562;28;20032;-79
2022/08/10 10:01:28;;;;;;;1.77;0.90;;;26.40;24.80;;;;;;5092322;28;20020;-80
2022/08/10 10:04:14;;;;;;;4.55;0.80;;;26.60;25.20;;;;;;5092571;28;20032;-79
2022/08/10 10:06:49;;;;;;;7.80;1.00;;;26.60;25.00;;;;;;5092182;28;20036;-80
2022/08/10 10:09:37;;;;;;;2.70;1.25;;;26.70;24.80;;;;;;5092648;28;20158;-79
2022/08/10 10:12:28;;;;;;;2.05;0.90;;;26.80;25.00;;;;;;5092444;28;20032;-81
2022/08/10 10:15:21;;;;;;;6.55;1.38;;;26.90;24.40;;;;;;5092241;28;20031;-81
2022/08/10 10:17:58;;;;;;;8.55;1.10;;;27.00;24.30;;;;;;5092349;28;20039;-79
2022/08/10 10:20:34;;;;;;;3.67;1.40;;;27.10;23.50;;;;;;5092445;28;20054;-82
2022/08/10 10:23:17;;;;;;;2.38;0.88;;;27.10;21.80;;;;;;5093465;28;20043;-81
2022/08/10 10:25:55;;;;;;;1.50;0.93;;;27.20;21.80;;;;;;5100941;28;20024;-80
2022/08/10 10:28:34;;;;;;;1.63;0.82;;;27.30;22.30;;;;;;5096006;28;20073;-83
2022/08/10 10:31:31;;;;;;;0.80;0.80;;;27.40;22.30;;;;;;5095926;28;20430;-81
2022/08/10 10:34:15;;;;;;;1.30;0.95;;;27.50;22.10;;;;;;5094620;28;20036;-81
2022/08/10 10:36:43;;;;;;;2.03;0.80;;;27.60;21.70;;;;;;5095653;28;20422;-79
2022/08/10 10:39:12;;;;;;;2.15;1.02;;;27.70;21.60;;;;;;5095787;28;20034;-77
2022/08/10 10:42:24;;;;;;;5.10;0.85;;;27.70;21.90;;;;;;5095480;28;20012;-76
2022/08/10 10:45:08;;;;;;;1.95;0.90;;;27.80;21.80;;;;;;5095709;28;20158;-75
2022/08/10 10:47:52;;;;;;;2.13;1.02;;;28.00;22.00;;;;;;5095446;28;20063;-74
2022/08/10 10:50:25;;;;;;;3.17;0.63;;;27.90;20.10;;;;;;5095934;28;20060;-77
2022/08/10 10:53:07;;;;;;;3.00;1.27;;;27.90;20.80;;;;;;5095715;28;20059;-77
2022/08/10 10:55:36;;;;;;;2.58;0.95;;;28.10;21.10;;;;;;5095470;28;20020;-77
2022/08/10 10:58:18;;;;;;;2.95;0.95;;;28.20;21.10;;;;;;5095458;28;20020;-78
2022/08/10 11:01:03;;;;;;;4.93;1.00;;;28.40;21.10;;;;;;5095341;28;20028;-78
2022/08/10 11:04:06;;;;;;;1.38;0.90;;;28.50;21.20;;;;;;5095585;28;20065;-78
2022/08/10 11:07:00;;;;;;;1.50;0.90;;;28.60;19.80;;;;;;5093857;28;20470;-78
2022/08/10 11:09:28;;;;;;;1.00;0.82;;;28.70;19.70;;;;;;5095244;28;20024;-77
2022/08/10 11:12:01;;;;;;;4.35;1.00;;;28.80;19.60;;;;;;5094979;28;20112;-79
2022/08/10 11:14:41;;;;;;;4.10;1.00;;;29.00;20.00;;;;;;5095207;28;20026;-77
2022/08/10 11:17:21;;;;;;;1.58;0.70;;;29.00;19.20;;;;;;5095066;28;20028;-77
2022/08/10 11:20:14;;;;;;;4.43;0.90;;;29.00;19.10;;;;;;5094971;28;20024;-78
2022/08/10 11:22:51;;;;;;;2.63;0.95;;;29.10;19.70;;;;;;5094999;28;20027;-78
2022/08/10 11:25:30;;;;;;;9.02;1.65;;;29.20;19.60;;;;;;5095208;28;20073;-78
2022/08/10 11:28:24;;;;;;;6.22;1.40;;;29.30;19.70;;;;;;5094996;28;20091;-84
2022/08/10 11:31:09;;;;;;;4.55;1.05;;;29.50;19.60;;;;;;5092714;28;20033;-79
2022/08/10 11:34:01;;;;;;;2.33;1.17;;;29.60;19.80;;;;;;5094570;28;20024;-78
2022/08/10 11:36:52;;;;;;;2.70;1.00;;;29.70;19.30;;;;;;5094743;28;20356;-78
2022/08/10 11:39:35;;;;;;;3.00;0.60;;;29.90;19.20;;;;;;5094652;28;20045;-77
2022/08/10 11:42:41;;;;;;;1.08;0.80;;;30.10;18.60;;;;;;5094317;28;20021;-76
2022/08/10 11:45:30;;;;;;;27.00;3.55;;;29.90;18.00;;;;;;5093320;28;20104;-76
2022/08/10 11:48:07;;;;;;;3.17;1.20;;;30.00;18.60;;;;;;5094733;28;20068;-76
2022/08/10 11:50:56;;;;;;;15.10;3.67;;;29.90;18.10;;;;;;5095270;28;20474;-76
2022/08/10 11:53:33;;;;;;;36.75;6.32;;;29.80;18.10;;;;;;5094549;28;20481;-76
2022/08/10 11:56:00;;;;;;;5.05;1.45;;;29.80;18.40;;;;;;5094406;28;20069;-76
2022/08/10 12:01:20;;;;;;;9.95;1.70;;;30.00;18.00;;;;;;5094597;28;20043;-76
2022/08/10 12:03:47;;;;;;;2.95;1.33;;;30.10;18.10;;;;;;5094297;28;20016;-75
2022/08/10 12:06:19;;;;;;;2.42;1.02;;;30.10;18.50;;;;;;5094226;28;20466;-75
2022/08/10 12:08:47;;;;;;;1.42;0.90;;;30.10;18.50;;;;;;5094168;28;20028;-75
2022/08/10 12:11:21;;;;;;;5.95;1.10;;;30.30;18.60;;;;;;5093940;28;20028;-75
2022/08/10 12:13:59;;;;;;;4.57;1.30;;;30.50;18.00;;;;;;5093970;28;20042;-76
2022/08/10 12:16:28;;;;;;;2.85;1.00;;;30.50;18.70;;;;;;5094076;28;20024;-77
2022/08/10 12:19:25;;;;;;;8.25;1.17;;;30.40;18.30;;;;;;5093880;28;20024;-77
2022/08/10 12:21:58;;;;;;;1.95;0.93;;;30.40;18.30;;;;;;5092557;28;20392;-77
2022/08/10 12:24:54;;;;;;;1.13;0.80;;;30.40;18.30;;;;;;5093737;28;20516;-77
2022/08/10 12:27:33;;;;;;;1.83;0.70;;;30.70;18.10;;;;;;5093759;28;20028;-77
2022/08/10 12:30:08;;;;;;;4.68;0.90;;;30.90;17.50;;;;;;5093876;28;20024;-77
2022/08/10 12:32:53;;;;;;;1.75;0.80;;;31.00;18.00;;;;;;5093447;28;20085;-76
2022/08/10 12:35:51;;;;;;;3.20;0.90;;;31.10;18.00;;;;;;5093482;28;20362;-76
2022/08/10 12:38:29;;;;;;;1.90;0.80;;;31.10;18.00;;;;;;5093749;28;20023;-77
2022/08/10 12:41:02;;;;;;;4.38;0.90;;;31.10;17.60;;;;;;5093503;28;20107;-75
2022/08/10 12:43:42;;;;;;;3.83;0.90;;;31.30;18.10;;;;;;5093463;28;20096;-76
2022/08/10 12:46:31;;;;;;;2.92;0.82;;;31.50;17.20;;;;;;5093325;28;20027;-78
2022/08/10 12:49:18;;;;;;;5.75;1.00;;;31.60;17.20;;;;;;5093030;28;20088;-78
2022/08/10 12:51:52;;;;;;;1.70;1.30;;;31.60;17.20;;;;;;5093365;28;20314;-77
2022/08/10 12:54:20;;;;;;;3.63;0.90;;;31.60;17.50;;;;;;5093468;28;20055;-77
2022/08/10 12:56:57;;;;;;;2.28;1.20;;;31.50;17.40;;;;;;5091899;28;20481;-76
2022/08/10 12:59:26;;;;;;;2.45;1.17;;;31.50;17.20;;;;;;5093359;28;20517;-77
2022/08/10 13:01:54;;;;;;;4.40;1.02;;;31.50;17.30;;;;;;5093074;28;20049;-77
2022/08/10 13:04:33;;;;;;;3.00;1.38;;;31.50;17.40;;;;;;5093173;28;20030;-76
2022/08/10 13:07:00;;;;;;;4.75;1.33;;;31.60;17.40;;;;;;5093233;28;20028;-77
2022/08/10 13:09:27;;;;;;;5.07;1.48;;;31.70;17.20;;;;;;5093168;28;20020;-76
2022/08/10 13:11:58;;;;;;;4.55;1.17;;;31.70;16.30;;;;;;5093006;28;20086;-76
2022/08/10 13:14:37;;;;;;;1.60;0.80;;;31.60;16.00;;;;;;5093081;28;20030;-76
2022/08/10 13:17:05;;;;;;;3.97;1.20;;;31.60;16.80;;;;;;5092060;28;20024;-76
2022/08/10 13:19:39;;;;;;;2.85;1.20;;;31.60;17.30;;;;;;5093042;28;20374;-77